Time;durP1;ratioP1;P1;durP2;ratioP2;P2;SDS_P1;SDS_P2;PMS_P1;PMS_P2;Temp;Humidity;BMP_temperature;BMP_pressure;BME280_temperature;BME280_humidity;BME280_pressure;Samples;Min_cycle;Max_cycle;Signal;HPM_P1;HPM_P2
2023/12/01 00:01:38;;;;;;;532.58;519.92;;;;;;;;;;6212869;23;20075;-71
2023/12/01 00:04:05;;;;;;;529.78;517.20;;;;;;;;;;6213727;23;20021;-71
2023/12/01 00:06:33;;;;;;;538.97;526.10;;;;;;;;;;6213446;23;20028;-71
2023/12/01 00:08:59;;;;;;;527.90;515.30;;;;;;;;;;6213530;23;20028;-72
2023/12/01 00:11:26;;;;;;;531.60;518.95;;;;;;;;;;6213509;23;20387;-71
2023/12/01 00:13:52;;;;;;;541.92;529.05;;;;;;;;;;6213654;23;20025;-71
2023/12/01 00:16:19;;;;;;;538.90;526.05;;;;;;;;;;6213018;23;20087;-71
2023/12/01 00:18:45;;;;;;;541.15;528.17;;;;;;;;;;6213231;23;20509;-71
2023/12/01 00:21:12;;;;;;;524.25;511.77;;;;;;;;;;6213830;23;20083;-70
2023/12/01 00:23:39;;;;;;;543.72;530.75;;;;;;;;;;6213906;23;20491;-72
2023/12/01 00:26:06;;;;;;;541.65;528.67;;;;;;;;;;6215220;23;20071;-71
2023/12/01 00:28:33;;;;;;;542.42;529.38;;;;;;;;;;6215230;23;20458;-71
2023/12/01 00:30:59;;;;;;;531.60;518.92;;;;;;;;;;6215091;23;20017;-71
2023/12/01 00:33:25;;;;;;;546.25;533.20;;;;;;;;;;6214999;23;20071;-71
2023/12/01 00:35:52;;;;;;;530.92;518.17;;;;;;;;;;6215426;23;20347;-71
2023/12/01 00:38:20;;;;;;;543.10;530.13;;;;;;;;;;6215269;23;20099;-72
2023/12/01 00:40:47;;;;;;;538.05;525.25;;;;;;;;;;6215102;23;20530;-71
2023/12/01 00:43:14;;;;;;;545.72;532.72;;;;;;;;;;6215085;23;20020;-71
2023/12/01 00:45:41;;;;;;;552.05;538.92;;;;;;;;;;6215333;23;20032;-71
2023/12/01 00:48:07;;;;;;;519.67;507.20;;;;;;;;;;6215397;23;20075;-71
2023/12/01 00:50:34;;;;;;;577.53;563.78;;;;;;;;;;6214867;23;20226;-71
2023/12/01 00:53:00;;;;;;;531.05;518.35;;;;;;;;;;6214742;23;20055;-71
2023/12/01 00:55:27;;;;;;;517.67;505.33;;;;;;;;;;6215428;23;20110;-70
2023/12/01 00:57:55;;;;;;;539.55;526.67;;;;;;;;;;6214761;23;20028;-71
2023/12/01 01:00:22;;;;;;;528.40;515.78;;;;;;;;;;6214916;23;20031;-72
2023/12/01 01:02:50;;;;;;;532.53;519.80;;;;;;;;;;6215236;23;20029;-72
2023/12/01 01:05:16;;;;;;;529.05;516.42;;;;;;;;;;6215338;23;20028;-68
2023/12/01 01:07:43;;;;;;;541.30;528.38;;;;;;;;;;6214425;23;20025;-69
2023/12/01 01:10:09;;;;;;;553.88;540.63;;;;;;;;;;6215221;23;20043;-70
2023/12/01 01:12:36;;;;;;;543.55;530.55;;;;;;;;;;6215189;23;20023;-68
2023/12/01 01:15:04;;;;;;;541.75;528.83;;;;;;;;;;6214690;23;20025;-69
2023/12/01 01:17:31;;;;;;;541.22;528.28;;;;;;;;;;6214546;23;20021;-68
2023/12/01 01:19:58;;;;;;;530.22;517.47;;;;;;;;;;6214693;23;20368;-68
2023/12/01 01:22:25;;;;;;;535.03;522.28;;;;;;;;;;6214659;23;20016;-71
2023/12/01 01:24:51;;;;;;;537.58;524.67;;;;;;;;;;6214050;23;20689;-71
2023/12/01 01:27:17;;;;;;;547.65;534.58;;;;;;;;;;6214935;23;20017;-70
2023/12/01 01:29:44;;;;;;;540.92;528.00;;;;;;;;;;6214704;23;20024;-71
2023/12/01 01:32:12;;;;;;;531.00;518.33;;;;;;;;;;6214495;23;20025;-71
2023/12/01 01:34:38;;;;;;;531.53;518.83;;;;;;;;;;6214702;23;20036;-71
2023/12/01 01:37:07;;;;;;;522.65;510.13;;;;;;;;;;6214940;23;20024;-72
2023/12/01 01:39:34;;;;;;;532.97;520.25;;;;;;;;;;6214462;23;20628;-71
2023/12/01 01:42:01;;;;;;;525.60;513.00;;;;;;;;;;6214043;23;20510;-71
2023/12/01 01:44:27;;;;;;;523.70;511.15;;;;;;;;;;6214740;23;20091;-71
2023/12/01 01:46:55;;;;;;;523.70;511.25;;;;;;;;;;6214412;23;20020;-71
2023/12/01 01:49:27;;;;;;;510.20;497.98;;;;;;;;;;6214356;23;20025;-71
2023/12/01 01:51:54;;;;;;;527.75;515.25;;;;;;;;;;6214330;23;20024;-71
2023/12/01 01:54:23;;;;;;;491.60;479.83;;;;;;;;;;6214353;23;20522;-71
2023/12/01 01:56:49;;;;;;;496.95;485.02;;;;;;;;;;6214478;23;20025;-71
2023/12/01 01:59:19;;;;;;;512.05;499.80;;;;;;;;;;6213888;23;20090;-71
2023/12/01 02:01:46;;;;;;;512.17;499.95;;;;;;;;;;6213772;23;20024;-70
2023/12/01 02:04:12;;;;;;;472.08;460.67;;;;;;;;;;6214484;23;20021;-70
2023/12/01 02:06:40;;;;;;;507.88;495.75;;;;;;;;;;6214182;23;20534;-70
2023/12/01 02:09:07;;;;;;;491.27;479.50;;;;;;;;;;6214590;23;20387;-70
2023/12/01 02:11:34;;;;;;;476.60;465.13;;;;;;;;;;6214699;23;20086;-70
2023/12/01 02:14:00;;;;;;;502.52;490.55;;;;;;;;;;6213767;23;20079;-70
2023/12/01 02:16:28;;;;;;;477.40;465.90;;;;;;;;;;6214636;23;20028;-72
2023/12/01 02:18:55;;;;;;;514.80;502.63;;;;;;;;;;6213602;23;20024;-68
2023/12/01 02:21:24;;;;;;;505.40;493.38;;;;;;;;;;6213991;23;20333;-68
2023/12/01 02:23:52;;;;;;;508.20;496.08;;;;;;;;;;6213763;23;20477;-69
2023/12/01 02:26:18;;;;;;;518.13;505.77;;;;;;;;;;6214192;23;20514;-69
2023/12/01 02:28:45;;;;;;;534.50;521.88;;;;;;;;;;6213851;23;20537;-69
2023/12/01 02:31:11;;;;;;;526.28;513.80;;;;;;;;;;6213469;23;20020;-68
2023/12/01 02:33:38;;;;;;;524.67;512.25;;;;;;;;;;6214512;23;20403;-69
2023/12/01 02:36:06;;;;;;;534.92;522.28;;;;;;;;;;6214250;23;20025;-70
2023/12/01 02:38:33;;;;;;;531.67;519.08;;;;;;;;;;6213775;23;20017;-69
2023/12/01 02:41:02;;;;;;;505.08;493.10;;;;;;;;;;6213987;23;20025;-69
2023/12/01 02:43:29;;;;;;;543.38;530.45;;;;;;;;;;6214087;23;20082;-69
2023/12/01 02:45:55;;;;;;;511.05;498.90;;;;;;;;;;6213636;23;20024;-69
2023/12/01 02:48:23;;;;;;;539.60;526.83;;;;;;;;;;6214192;23;20075;-69
2023/12/01 02:50:49;;;;;;;526.28;513.78;;;;;;;;;;6214133;23;20091;-69
2023/12/01 02:53:16;;;;;;;512.65;500.42;;;;;;;;;;6213827;23;20471;-69
2023/12/01 02:55:43;;;;;;;508.15;496.02;;;;;;;;;;6214263;23;20077;-68
2023/12/01 02:58:11;;;;;;;520.60;508.23;;;;;;;;;;6213438;23;20364;-70
2023/12/01 03:03:21;;;;;;;508.20;496.08;;;;;;;;;;6213325;23;20059;-69
2023/12/01 03:05:48;;;;;;;494.90;483.02;;;;;;;;;;6214064;23;20028;-69
2023/12/01 03:08:14;;;;;;;495.17;483.35;;;;;;;;;;6214087;23;20028;-71
2023/12/01 03:10:41;;;;;;;510.45;498.30;;;;;;;;;;6213818;23;20079;-69
2023/12/01 03:13:07;;;;;;;485.85;474.20;;;;;;;;;;6213980;23;20075;-69
2023/12/01 03:15:35;;;;;;;501.23;489.25;;;;;;;;;;6213783;23;20075;-69
2023/12/01 03:18:02;;;;;;;500.70;488.73;;;;;;;;;;6213488;23;20024;-69
2023/12/01 03:20:28;;;;;;;516.58;504.30;;;;;;;;;;6213146;23;20422;-69
2023/12/01 03:22:55;;;;;;;518.65;506.33;;;;;;;;;;6213056;23;20082;-70
2023/12/01 03:25:21;;;;;;;509.20;497.10;;;;;;;;;;6214014;23;20020;-68
2023/12/01 03:27:48;;;;;;;505.50;493.48;;;;;;;;;;6213427;23;20448;-69
2023/12/01 03:30:15;;;;;;;514.70;502.48;;;;;;;;;;6214102;23;20071;-70
2023/12/01 03:32:45;;;;;;;518.45;506.20;;;;;;;;;;6213890;23;20455;-69
2023/12/01 03:35:12;;;;;;;525.08;512.67;;;;;;;;;;6213918;23;20021;-69
2023/12/01 03:37:39;;;;;;;506.83;494.83;;;;;;;;;;6213640;23;20101;-69
2023/12/01 03:40:08;;;;;;;494.05;482.27;;;;;;;;;;6213814;23;20020;-69
2023/12/01 03:42:34;;;;;;;499.83;487.90;;;;;;;;;;6213697;23;20042;-69
2023/12/01 03:45:01;;;;;;;491.42;479.70;;;;;;;;;;6213635;23;20402;-69
2023/12/01 03:47:27;;;;;;;508.85;496.80;;;;;;;;;;6214016;23;20028;-69
2023/12/01 03:49:55;;;;;;;516.63;504.35;;;;;;;;;;6213404;23;20025;-69
2023/12/01 03:52:21;;;;;;;521.53;509.20;;;;;;;;;;6213468;23;20460;-69
2023/12/01 03:54:48;;;;;;;511.45;499.30;;;;;;;;;;6213357;23;20073;-70
2023/12/01 03:57:14;;;;;;;499.58;487.70;;;;;;;;;;6213383;23;20028;-71
2023/12/01 03:59:41;;;;;;;510.27;498.20;;;;;;;;;;6215628;23;20099;-70
2023/12/01 04:02:07;;;;;;;534.22;521.63;;;;;;;;;;6215881;23;20024;-71
2023/12/01 04:04:34;;;;;;;482.73;471.15;;;;;;;;;;6215338;23;20074;-70
2023/12/01 04:07:05;;;;;;;493.30;481.52;;;;;;;;;;6215820;23;20029;-71
2023/12/01 04:09:33;;;;;;;501.15;489.25;;;;;;;;;;6215375;23;20017;-71
2023/12/01 04:11:59;;;;;;;505.23;493.23;;;;;;;;;;6214684;23;20483;-73
2023/12/01 04:14:26;;;;;;;519.58;507.33;;;;;;;;;;6215761;23;20073;-70
2023/12/01 04:16:52;;;;;;;523.03;510.63;;;;;;;;;;6215756;23;20032;-71
2023/12/01 04:19:19;;;;;;;517.17;504.92;;;;;;;;;;6214902;23;20631;-72
2023/12/01 04:21:45;;;;;;;518.60;506.30;;;;;;;;;;6215753;23;20075;-72
2023/12/01 04:24:13;;;;;;;506.10;494.05;;;;;;;;;;6215378;23;20462;-71
2023/12/01 04:26:40;;;;;;;494.23;482.48;;;;;;;;;;6215140;23;20090;-71
2023/12/01 04:29:06;;;;;;;517.08;504.77;;;;;;;;;;6214664;23;20329;-70
2023/12/01 04:31:34;;;;;;;510.98;498.80;;;;;;;;;;6215614;23;20016;-71
2023/12/01 04:34:00;;;;;;;526.50;513.97;;;;;;;;;;6215326;23;20025;-72
2023/12/01 04:36:27;;;;;;;523.25;510.80;;;;;;;;;;6215518;23;20056;-71
2023/12/01 04:38:53;;;;;;;539.80;526.95;;;;;;;;;;6215354;23;20048;-71
2023/12/01 04:41:21;;;;;;;530.70;518.05;;;;;;;;;;6215020;23;20028;-71
2023/12/01 04:43:48;;;;;;;532.30;519.63;;;;;;;;;;6215314;23;20024;-71
2023/12/01 04:46:14;;;;;;;546.63;533.58;;;;;;;;;;6214509;23;20020;-71
2023/12/01 04:48:41;;;;;;;529.72;517.08;;;;;;;;;;6214883;23;20428;-71
2023/12/01 04:51:08;;;;;;;523.88;511.38;;;;;;;;;;6215149;23;20024;-71
2023/12/01 04:53:34;;;;;;;526.75;514.15;;;;;;;;;;6215376;23;20386;-71
2023/12/01 04:56:00;;;;;;;526.95;514.38;;;;;;;;;;6215153;23;20024;-72
2023/12/01 04:58:28;;;;;;;529.95;517.22;;;;;;;;;;6214964;23;20025;-74
2023/12/01 05:00:55;;;;;;;557.05;543.72;;;;;;;;;;6215252;23;20021;-74
2023/12/01 05:03:21;;;;;;;556.85;543.58;;;;;;;;;;6214136;23;20490;-71
2023/12/01 05:05:48;;;;;;;533.78;521.03;;;;;;;;;;6215302;23;20079;-70
2023/12/01 05:08:15;;;;;;;557.28;543.85;;;;;;;;;;6215204;23;20048;-71
2023/12/01 05:10:44;;;;;;;547.63;534.53;;;;;;;;;;6214224;23;20417;-72
2023/12/01 05:13:11;;;;;;;538.35;525.45;;;;;;;;;;6214735;23;20025;-72
2023/12/01 05:15:39;;;;;;;543.30;530.30;;;;;;;;;;6214935;23;20024;-73
2023/12/01 05:18:10;;;;;;;539.78;526.85;;;;;;;;;;6213795;23;20082;-74
2023/12/01 05:20:36;;;;;;;560.60;547.15;;;;;;;;;;6214926;23;20082;-73
2023/12/01 05:23:05;;;;;;;567.85;554.25;;;;;;;;;;6214542;23;20152;-74
2023/12/01 05:25:32;;;;;;;552.08;538.85;;;;;;;;;;6214440;23;20024;-71
2023/12/01 05:27:59;;;;;;;552.08;538.83;;;;;;;;;;6214871;23;20044;-73
2023/12/01 05:30:27;;;;;;;545.97;532.85;;;;;;;;;;6214712;23;20459;-73
2023/12/01 05:32:55;;;;;;;546.50;533.42;;;;;;;;;;6214373;23;20087;-73
2023/12/01 05:35:22;;;;;;;539.35;526.42;;;;;;;;;;6214629;23;20024;-73
2023/12/01 05:37:49;;;;;;;535.50;522.60;;;;;;;;;;6214873;23;20021;-73
2023/12/01 05:40:17;;;;;;;554.22;540.97;;;;;;;;;;6209786;23;20127;-72
2023/12/01 05:42:44;;;;;;;552.38;539.20;;;;;;;;;;6214831;23;20075;-71
2023/12/01 05:45:12;;;;;;;549.35;536.15;;;;;;;;;;6214470;23;20087;-70
2023/12/01 05:47:42;;;;;;;545.58;532.50;;;;;;;;;;6212467;23;20062;-71
2023/12/01 05:50:12;;;;;;;550.45;537.30;;;;;;;;;;6213785;23;20447;-71
2023/12/01 05:52:39;;;;;;;541.30;528.28;;;;;;;;;;6211436;23;20095;-73
2023/12/01 05:55:10;;;;;;;520.75;508.25;;;;;;;;;;6213958;23;20079;-72
2023/12/01 05:57:36;;;;;;;538.85;525.90;;;;;;;;;;6210944;23;20029;-74
2023/12/01 06:00:04;;;;;;;542.08;529.13;;;;;;;;;;6212608;23;20529;-72
2023/12/01 06:02:31;;;;;;;534.20;521.35;;;;;;;;;;6213561;23;20029;-72
2023/12/01 06:04:59;;;;;;;551.22;538.05;;;;;;;;;;6212901;23;20070;-72
2023/12/01 06:07:27;;;;;;;534.10;521.33;;;;;;;;;;6213350;23;20478;-71
2023/12/01 06:09:54;;;;;;;546.00;532.92;;;;;;;;;;6214057;23;20020;-71
2023/12/01 06:12:20;;;;;;;544.08;530.88;;;;;;;;;;6214499;23;20036;-72
2023/12/01 06:14:47;;;;;;;544.53;531.53;;;;;;;;;;6213598;23;20051;-70
2023/12/01 06:17:13;;;;;;;575.20;561.33;;;;;;;;;;6211657;23;20168;-70
2023/12/01 06:19:40;;;;;;;561.72;548.28;;;;;;;;;;6213630;23;20032;-71
2023/12/01 06:22:07;;;;;;;568.70;555.00;;;;;;;;;;6213735;23;20020;-70
2023/12/01 06:24:35;;;;;;;564.13;550.53;;;;;;;;;;6213884;23;20079;-70
2023/12/01 06:27:04;;;;;;;561.55;548.08;;;;;;;;;;6213613;23;20414;-71
2023/12/01 06:29:30;;;;;;;576.78;562.78;;;;;;;;;;6213763;23;20029;-70
2023/12/01 06:31:57;;;;;;;576.70;562.70;;;;;;;;;;6213540;23;20020;-71
2023/12/01 06:34:23;;;;;;;565.03;551.28;;;;;;;;;;6212813;23;20063;-71
2023/12/01 06:36:50;;;;;;;569.88;556.03;;;;;;;;;;6213913;23;20364;-72
2023/12/01 06:39:16;;;;;;;568.22;554.38;;;;;;;;;;6213862;23;20028;-71
2023/12/01 06:41:46;;;;;;;608.90;593.97;;;;;;;;;;6213767;23;20030;-71
2023/12/01 06:44:12;;;;;;;577.78;563.65;;;;;;;;;;6213901;23;20027;-72
2023/12/01 06:46:39;;;;;;;596.08;581.35;;;;;;;;;;6213841;23;20351;-70
2023/12/01 06:49:05;;;;;;;615.55;600.30;;;;;;;;;;6213644;23;20104;-70
2023/12/01 06:51:33;;;;;;;589.22;574.78;;;;;;;;;;6213474;23;20470;-70
2023/12/01 06:54:00;;;;;;;591.17;576.55;;;;;;;;;;6213010;23;20263;-70
2023/12/01 06:56:26;;;;;;;601.10;586.25;;;;;;;;;;6213260;23;20530;-71
2023/12/01 06:58:55;;;;;;;585.35;570.88;;;;;;;;;;6213319;23;20024;-71
2023/12/01 07:01:21;;;;;;;611.20;595.97;;;;;;;;;;6213902;23;20021;-71
2023/12/01 07:03:48;;;;;;;601.40;586.58;;;;;;;;;;6214958;23;20448;-70
2023/12/01 07:06:15;;;;;;;601.40;586.53;;;;;;;;;;6212786;23;20079;-70
2023/12/01 07:08:41;;;;;;;594.78;580.17;;;;;;;;;;6213310;23;20083;-70
2023/12/01 07:11:08;;;;;;;595.55;580.83;;;;;;;;;;6213395;23;20464;-70
2023/12/01 07:13:35;;;;;;;604.15;589.22;;;;;;;;;;6213458;23;20024;-71
2023/12/01 07:16:09;;;;;;;594.78;580.08;;;;;;;;;;6212872;23;20467;-70
2023/12/01 07:18:36;;;;;;;596.63;581.78;;;;;;;;;;6213191;23;20021;-70
2023/12/01 07:21:06;;;;;;;581.85;567.45;;;;;;;;;;6213127;23;20463;-70
2023/12/01 07:23:32;;;;;;;591.47;576.75;;;;;;;;;;6213439;23;20025;-71
2023/12/01 07:25:59;;;;;;;606.92;591.80;;;;;;;;;;6213664;23;20021;-71
2023/12/01 07:28:25;;;;;;;610.80;595.47;;;;;;;;;;6213472;23;20021;-70
2023/12/01 07:30:52;;;;;;;612.70;597.28;;;;;;;;;;6213346;23;20024;-70
2023/12/01 07:33:20;;;;;;;605.70;590.47;;;;;;;;;;6214999;23;20020;-70
2023/12/01 07:35:46;;;;;;;621.47;605.75;;;;;;;;;;6215963;23;20028;-70
2023/12/01 07:38:15;;;;;;;625.78;609.85;;;;;;;;;;6215298;23;20067;-71
2023/12/01 07:40:41;;;;;;;600.65;585.60;;;;;;;;;;6215039;23;20051;-71
2023/12/01 07:43:08;;;;;;;617.22;601.67;;;;;;;;;;6215134;23;20020;-71
2023/12/01 07:45:35;;;;;;;614.72;599.28;;;;;;;;;;6215347;23;20028;-70
2023/12/01 07:48:02;;;;;;;610.33;594.97;;;;;;;;;;6215180;23;20020;-71
2023/12/01 07:50:30;;;;;;;611.70;596.30;;;;;;;;;;6214705;23;20021;-70
2023/12/01 07:52:56;;;;;;;612.05;596.55;;;;;;;;;;6215077;23;20028;-70
2023/12/01 07:55:23;;;;;;;620.97;605.13;;;;;;;;;;6215605;23;20024;-70
2023/12/01 07:57:51;;;;;;;614.78;599.08;;;;;;;;;;6215053;23;20028;-71
2023/12/01 08:00:18;;;;;;;625.42;609.35;;;;;;;;;;6215288;23;20021;-71
2023/12/01 08:02:45;;;;;;;617.95;602.10;;;;;;;;;;6215580;23;20082;-70
2023/12/01 08:05:13;;;;;;;628.53;612.45;;;;;;;;;;6215452;23;20024;-71
2023/12/01 08:07:42;;;;;;;621.83;605.95;;;;;;;;;;6211209;23;20198;-71
2023/12/01 08:10:09;;;;;;;608.53;593.20;;;;;;;;;;6215576;23;20071;-70
2023/12/01 08:12:36;;;;;;;609.78;594.42;;;;;;;;;;6215178;23;20058;-71
2023/12/01 08:15:02;;;;;;;602.75;587.60;;;;;;;;;;6214386;23;20079;-71
2023/12/01 08:17:29;;;;;;;610.90;595.53;;;;;;;;;;6213813;23;20112;-71
2023/12/01 08:19:55;;;;;;;598.78;583.85;;;;;;;;;;6214721;23;20028;-71
2023/12/01 08:22:22;;;;;;;607.40;592.15;;;;;;;;;;6214165;23;20403;-71
2023/12/01 08:24:50;;;;;;;599.92;584.85;;;;;;;;;;6215354;23;20020;-71
2023/12/01 08:27:17;;;;;;;612.35;596.97;;;;;;;;;;6215359;23;20016;-70
2023/12/01 08:29:43;;;;;;;606.78;591.58;;;;;;;;;;6214708;23;20075;-71
2023/12/01 08:32:10;;;;;;;609.95;594.60;;;;;;;;;;6214087;23;20027;-71
2023/12/01 08:34:37;;;;;;;618.10;602.58;;;;;;;;;;6215350;23;20036;-72
2023/12/01 08:37:04;;;;;;;615.22;599.67;;;;;;;;;;6214926;23;20067;-71
2023/12/01 08:39:30;;;;;;;619.60;603.85;;;;;;;;;;6215029;23;20024;-71
2023/12/01 08:41:58;;;;;;;630.08;613.97;;;;;;;;;;6212938;23;20071;-69
2023/12/01 08:44:25;;;;;;;622.45;606.63;;;;;;;;;;6214406;23;20032;-69
2023/12/01 08:46:51;;;;;;;607.83;592.45;;;;;;;;;;6215123;23;20017;-69
2023/12/01 08:49:18;;;;;;;628.60;612.53;;;;;;;;;;6214596;23;20032;-72
2023/12/01 08:51:45;;;;;;;629.17;613.00;;;;;;;;;;6213818;23;20494;-72
2023/12/01 08:54:12;;;;;;;611.45;595.92;;;;;;;;;;6214862;23;20028;-71
2023/12/01 08:56:38;;;;;;;642.20;625.58;;;;;;;;;;6215180;23;20075;-72
2023/12/01 08:59:06;;;;;;;634.45;618.03;;;;;;;;;;6214535;23;20056;-72
2023/12/01 09:01:32;;;;;;;630.95;614.60;;;;;;;;;;6215071;23;20016;-71
2023/12/01 09:03:59;;;;;;;614.22;598.55;;;;;;;;;;6215020;23;20020;-71
2023/12/01 09:06:25;;;;;;;625.63;609.47;;;;;;;;;;6214746;23;20025;-71
2023/12/01 09:08:52;;;;;;;621.22;605.25;;;;;;;;;;6214668;23;20543;-71
2023/12/01 09:11:18;;;;;;;629.00;612.85;;;;;;;;;;6214167;23;20020;-71
2023/12/01 09:13:45;;;;;;;629.35;613.05;;;;;;;;;;6214720;23;20028;-71
2023/12/01 09:16:13;;;;;;;627.22;611.13;;;;;;;;;;6215129;23;20023;-72
2023/12/01 09:18:39;;;;;;;623.75;607.75;;;;;;;;;;6214398;23;20786;-71
2023/12/01 09:21:06;;;;;;;621.38;605.45;;;;;;;;;;6214744;23;20071;-71
2023/12/01 09:23:33;;;;;;;611.20;595.63;;;;;;;;;;6213835;23;20131;-71
2023/12/01 09:25:59;;;;;;;624.50;608.50;;;;;;;;;;6214211;23;20028;-71
2023/12/01 09:28:26;;;;;;;616.58;600.75;;;;;;;;;;6213766;23;20396;-71
2023/12/01 09:30:52;;;;;;;623.80;607.83;;;;;;;;;;6213481;23;20090;-71
2023/12/01 09:33:20;;;;;;;623.40;607.45;;;;;;;;;;6213785;23;20028;-71
2023/12/01 09:35:46;;;;;;;634.42;618.05;;;;;;;;;;6214349;23;20028;-72
2023/12/01 09:38:13;;;;;;;625.03;608.92;;;;;;;;;;6214335;23;20390;-71
2023/12/01 09:40:41;;;;;;;630.22;613.92;;;;;;;;;;6214824;23;20024;-71
2023/12/01 09:43:08;;;;;;;621.85;605.83;;;;;;;;;;6212567;23;20021;-71
2023/12/01 09:45:34;;;;;;;632.08;615.65;;;;;;;;;;6214778;23;20119;-72
2023/12/01 09:48:04;;;;;;;625.42;609.25;;;;;;;;;;6214580;23;20024;-72
2023/12/01 09:50:32;;;;;;;633.35;616.92;;;;;;;;;;6213891;23;20025;-71
2023/12/01 09:52:58;;;;;;;619.17;603.28;;;;;;;;;;6213056;23;20024;-71
2023/12/01 09:55:25;;;;;;;642.75;625.97;;;;;;;;;;6214216;23;20031;-72
2023/12/01 09:57:53;;;;;;;626.00;609.83;;;;;;;;;;6213914;23;20032;-72
2023/12/01 10:00:20;;;;;;;636.67;620.15;;;;;;;;;;6214424;23;20052;-72
2023/12/01 10:02:46;;;;;;;636.85;620.38;;;;;;;;;;6214617;23;20028;-71
2023/12/01 10:05:15;;;;;;;632.15;615.72;;;;;;;;;;6214123;23;20056;-71
2023/12/01 10:07:43;;;;;;;634.10;617.65;;;;;;;;;;6214372;23;20024;-71
2023/12/01 10:10:18;;;;;;;626.88;610.67;;;;;;;;;;6214320;23;20481;-71
2023/12/01 10:12:52;;;;;;;646.25;629.22;;;;;;;;;;6213998;23;20056;-71
2023/12/01 10:15:19;;;;;;;626.08;609.88;;;;;;;;;;6214617;23;20025;-71
2023/12/01 10:17:46;;;;;;;625.15;608.97;;;;;;;;;;6211220;23;20350;-71
2023/12/01 10:20:13;;;;;;;626.17;609.97;;;;;;;;;;6211929;23;20028;-72
2023/12/01 10:22:40;;;;;;;626.13;609.92;;;;;;;;;;6211445;23;20021;-72
2023/12/01 10:25:12;;;;;;;631.40;615.13;;;;;;;;;;6214488;23;20020;-73
2023/12/01 10:27:38;;;;;;;625.65;609.67;;;;;;;;;;6213507;23;20043;-72
2023/12/01 10:30:12;;;;;;;630.83;614.63;;;;;;;;;;6212666;23;20032;-72
2023/12/01 10:32:39;;;;;;;626.60;610.55;;;;;;;;;;6213625;23;20550;-73
2023/12/01 10:35:06;;;;;;;629.47;613.30;;;;;;;;;;6214429;23;20032;-73
2023/12/01 10:37:33;;;;;;;611.55;596.03;;;;;;;;;;6214320;23;20017;-72
2023/12/01 10:40:05;;;;;;;617.90;602.13;;;;;;;;;;6212379;23;20024;-72
2023/12/01 10:42:33;;;;;;;622.15;606.35;;;;;;;;;;6211897;23;20529;-71
2023/12/01 10:45:01;;;;;;;614.67;599.08;;;;;;;;;;6211800;23;20028;-71
2023/12/01 10:47:28;;;;;;;609.20;593.75;;;;;;;;;;6213233;23;20529;-71
2023/12/01 10:49:55;;;;;;;622.78;606.90;;;;;;;;;;6213725;23;20087;-71
2023/12/01 10:52:22;;;;;;;630.63;614.53;;;;;;;;;;6213206;23;20021;-72
2023/12/01 10:54:49;;;;;;;621.38;605.55;;;;;;;;;;6212803;23;20020;-71
2023/12/01 10:57:17;;;;;;;624.13;608.17;;;;;;;;;;6213633;23;20020;-71
2023/12/01 10:59:46;;;;;;;613.05;597.50;;;;;;;;;;6213774;23;20075;-71
2023/12/01 11:02:14;;;;;;;626.38;610.40;;;;;;;;;;6211595;23;20017;-72
2023/12/01 11:04:44;;;;;;;617.38;601.70;;;;;;;;;;6213199;23;20467;-71
2023/12/01 11:07:22;;;;;;;618.85;603.13;;;;;;;;;;6213383;23;20030;-71
2023/12/01 11:10:02;;;;;;;626.33;610.42;;;;;;;;;;6214087;23;20020;-71
2023/12/01 11:12:34;;;;;;;617.83;602.17;;;;;;;;;;6213745;23;20479;-71
2023/12/01 11:15:07;;;;;;;628.08;612.05;;;;;;;;;;6214199;23;20029;-71
2023/12/01 11:17:34;;;;;;;616.08;600.47;;;;;;;;;;6213843;23;20527;-71
2023/12/01 11:20:02;;;;;;;625.63;609.67;;;;;;;;;;6213102;23;20052;-71
2023/12/01 11:22:37;;;;;;;623.15;607.22;;;;;;;;;;6212669;23;20332;-72
2023/12/01 11:25:05;;;;;;;632.50;616.28;;;;;;;;;;6213815;23;20028;-71
2023/12/01 11:27:32;;;;;;;613.88;598.20;;;;;;;;;;6213580;23;20051;-71
2023/12/01 11:29:59;;;;;;;622.55;606.70;;;;;;;;;;6210631;23;20103;-71
2023/12/01 11:32:33;;;;;;;610.47;594.97;;;;;;;;;;6214024;23;20051;-71
2023/12/01 11:35:06;;;;;;;624.85;608.88;;;;;;;;;;6214224;23;20095;-71
2023/12/01 11:37:52;;;;;;;625.60;609.63;;;;;;;;;;6212539;23;20086;-72
2023/12/01 11:40:22;;;;;;;624.28;608.45;;;;;;;;;;6213216;23;20093;-72
2023/12/01 11:42:48;;;;;;;616.00;600.30;;;;;;;;;;6213322;23;20020;-71
2023/12/01 11:45:15;;;;;;;622.90;607.03;;;;;;;;;;6213835;23;20100;-71
2023/12/01 11:47:43;;;;;;;612.72;597.13;;;;;;;;;;6211196;23;20095;-72
2023/12/01 11:50:12;;;;;;;611.47;595.97;;;;;;;;;;6211446;23;20028;-72
2023/12/01 11:52:38;;;;;;;633.47;617.22;;;;;;;;;;6212235;23;20355;-71
2023/12/01 11:55:15;;;;;;;615.70;600.08;;;;;;;;;;6213704;23;20032;-71
2023/12/01 11:57:44;;;;;;;622.65;606.80;;;;;;;;;;6212952;23;20511;-71
2023/12/01 12:00:11;;;;;;;630.30;614.10;;;;;;;;;;6213098;23;20379;-70
2023/12/01 12:02:38;;;;;;;631.40;615.10;;;;;;;;;;6213064;23;20017;-70
2023/12/01 12:05:07;;;;;;;621.72;605.83;;;;;;;;;;6213430;23;20024;-70
2023/12/01 12:07:34;;;;;;;631.65;615.38;;;;;;;;;;6213492;23;20094;-70
2023/12/01 12:10:01;;;;;;;628.70;612.60;;;;;;;;;;6213424;23;20082;-70
2023/12/01 12:12:29;;;;;;;631.95;615.67;;;;;;;;;;6213314;23;20096;-70
2023/12/01 12:15:05;;;;;;;620.80;604.95;;;;;;;;;;6212860;23;20052;-71
2023/12/01 12:17:31;;;;;;;628.60;612.42;;;;;;;;;;6213124;23;20099;-70
2023/12/01 12:19:58;;;;;;;630.83;614.47;;;;;;;;;;6214264;23;20071;-70
2023/12/01 12:22:27;;;;;;;627.42;611.15;;;;;;;;;;6214622;23;20074;-70
2023/12/01 12:24:53;;;;;;;612.60;597.00;;;;;;;;;;6215055;23;20584;-70
2023/12/01 12:27:20;;;;;;;618.35;602.30;;;;;;;;;;6214463;23;20024;-70
2023/12/01 12:29:46;;;;;;;633.95;617.42;;;;;;;;;;6214587;23;20028;-70
2023/12/01 12:32:13;;;;;;;634.78;618.40;;;;;;;;;;6214378;23;20091;-70
2023/12/01 12:34:41;;;;;;;622.25;606.22;;;;;;;;;;6215030;23;20028;-71
2023/12/01 12:37:07;;;;;;;614.03;598.53;;;;;;;;;;6214643;23;20025;-70
2023/12/01 12:39:35;;;;;;;621.90;606.17;;;;;;;;;;6214905;23;20029;-71
2023/12/01 12:42:02;;;;;;;617.22;601.60;;;;;;;;;;6214402;23;20523;-71
2023/12/01 12:44:30;;;;;;;591.03;576.25;;;;;;;;;;6214717;23;20047;-71
2023/12/01 12:47:00;;;;;;;593.50;578.65;;;;;;;;;;6214349;23;20099;-71
2023/12/01 12:49:27;;;;;;;602.13;587.05;;;;;;;;;;6214409;23;20024;-71
2023/12/01 12:51:54;;;;;;;609.25;594.03;;;;;;;;;;6214690;23;20074;-69
2023/12/01 12:54:20;;;;;;;590.00;575.33;;;;;;;;;;6214822;23;20029;-70
2023/12/01 12:56:48;;;;;;;610.83;595.50;;;;;;;;;;6214482;23;20024;-71
2023/12/01 12:59:14;;;;;;;606.22;591.08;;;;;;;;;;6214828;23;20106;-70
2023/12/01 13:01:41;;;;;;;596.58;581.80;;;;;;;;;;6214384;23;20555;-70
2023/12/01 14:08:10;;;;;;;57.75;55.65;;;;;;;;;;5090810;27;20389;-79
2023/12/01 14:10:36;;;;;;;50.95;49.10;;;;;;;;;;5090991;28;20135;-85
2023/12/01 14:13:06;;;;;;;39.80;38.20;;;;;;;;;;5090280;28;20558;-75
2023/12/01 14:22:10;;;;;;;13.52;12.82;;;;;;;;;;5128589;27;20390;-73
2023/12/01 14:24:37;;;;;;;14.18;13.30;;;;;;;;;;5128309;28;20051;-73
2023/12/01 14:27:04;;;;;;;14.50;13.80;;;;;;;;;;5128836;28;20053;-73
2023/12/01 14:29:32;;;;;;;17.05;16.02;;;;;;;;;;5124683;28;20513;-73
2023/12/01 14:32:00;;;;;;;10.27;9.48;;;;;;;;;;5128812;28;20070;-73
2023/12/01 14:34:26;;;;;;;9.23;8.80;;;;;;;;;;5128460;28;20063;-73
2023/12/01 14:36:53;;;;;;;11.10;10.52;;;;;;;;;;5128829;28;20088;-73
2023/12/01 14:39:22;;;;;;;5.40;5.05;;;;;;;;;;5128944;28;20457;-72
2023/12/01 14:41:48;;;;;;;6.60;4.40;;;;;;;;;;5129048;28;20051;-72
2023/12/01 14:44:15;;;;;;;10.38;9.80;;;;;;;;;;5127609;28;20100;-72
2023/12/01 14:46:42;;;;;;;7.75;7.35;;;;;;;;;;5125715;28;20112;-73
2023/12/01 14:49:08;;;;;;;5.15;4.85;;;;;;;;;;5128822;28;20104;-71
2023/12/01 14:51:34;;;;;;;11.73;9.48;;;;;;;;;;5128541;28;20051;-72
2023/12/01 14:54:00;;;;;;;8.00;3.88;;;;;;;;;;5126376;28;20047;-71
2023/12/01 14:56:28;;;;;;;5.82;5.18;;;;;;;;;;5126941;28;20077;-71
2023/12/01 14:58:55;;;;;;;5.13;4.63;;;;;;;;;;5128405;28;20518;-72
2023/12/01 15:01:23;;;;;;;5.25;4.10;;;;;;;;;;5128498;28;20047;-72
2023/12/01 15:03:50;;;;;;;14.00;13.18;;;;;;;;;;5127388;28;20047;-74
2023/12/01 15:06:16;;;;;;;4.97;4.43;;;;;;;;;;5127901;28;20047;-74
2023/12/01 15:08:43;;;;;;;5.70;4.65;;;;;;;;;;5128327;28;20048;-73